sensor_id;sensor_type;location;lat;lon;timestamp;pressure;altitude;pressure_sealevel;temperature;humidity
22964;BME280;11648;49.306;6.934;2024-01-30T00:00:53;99681.53;;;13.96;57.52
22964;BME280;11648;49.306;6.934;2024-01-30T00:03:20;99679.72;;;14.01;57.54
22964;BME280;11648;49.306;6.934;2024-01-30T00:05:47;99674.38;;;14.10;57.35
22964;BME280;11648;49.306;6.934;2024-01-30T00:08:14;99673.47;;;14.13;57.02
22964;BME280;11648;49.306;6.934;2024-01-30T00:10:41;99673.44;;;14.16;57.05
22964;BME280;11648;49.306;6.934;2024-01-30T00:13:08;99671.72;;;14.13;56.71
22964;BME280;11648;49.306;6.934;2024-01-30T00:15:35;99675.28;;;14.08;56.81
22964;BME280;11648;49.306;6.934;2024-01-30T00:18:02;99677.94;;;14.05;56.77
22964;BME280;11648;49.306;6.934;2024-01-30T00:20:29;99675.28;;;14.08;56.72
22964;BME280;11648;49.306;6.934;2024-01-30T00:22:56;99682.38;;;14.03;56.51
22964;BME280;11648;49.306;6.934;2024-01-30T00:25:23;99676.22;;;13.96;56.56
22964;BME280;11648;49.306;6.934;2024-01-30T00:27:50;99678.88;;;13.96;56.68
22964;BME280;11648;49.306;6.934;2024-01-30T00:30:17;99674.47;;;13.97;56.67
22964;BME280;11648;49.306;6.934;2024-01-30T00:32:44;99677.97;;;13.99;56.31
22964;BME280;11648;49.306;6.934;2024-01-30T00:35:12;99678.03;;;13.90;56.62
22964;BME280;11648;49.306;6.934;2024-01-30T00:37:39;99678.03;;;13.88;56.54
22964;BME280;11648;49.306;6.934;2024-01-30T00:40:06;99677.16;;;13.83;56.82
22964;BME280;11648;49.306;6.934;2024-01-30T00:42:34;99680.66;;;13.93;56.08
22964;BME280;11648;49.306;6.934;2024-01-30T00:45:01;99672.78;;;13.74;57.18
22964;BME280;11648;49.306;6.934;2024-01-30T00:47:28;99678.03;;;13.83;56.81
22964;BME280;11648;49.306;6.934;2024-01-30T00:49:55;99670.97;;;13.84;56.75
22964;BME280;11648;49.306;6.934;2024-01-30T00:52:22;99672.72;;;13.91;56.50
22964;BME280;11648;49.306;6.934;2024-01-30T00:54:49;99673.66;;;13.82;57.05
22964;BME280;11648;49.306;6.934;2024-01-30T00:57:16;99666.59;;;13.77;56.39
22964;BME280;11648;49.306;6.934;2024-01-30T00:59:43;99671.97;;;13.63;56.37
22964;BME280;11648;49.306;6.934;2024-01-30T01:02:10;99679.09;;;13.39;56.34
22964;BME280;11648;49.306;6.934;2024-01-30T01:04:37;99680.91;;;13.29;56.40
22964;BME280;11648;49.306;6.934;2024-01-30T01:07:04;99673.88;;;13.14;56.39
22964;BME280;11648;49.306;6.934;2024-01-30T01:09:31;99680.03;;;13.00;56.87
22964;BME280;11648;49.306;6.934;2024-01-30T01:11:58;99679.13;;;13.01;57.33
22964;BME280;11648;49.306;6.934;2024-01-30T01:14:25;99683.53;;;12.94;57.20
22964;BME280;11648;49.306;6.934;2024-01-30T01:16:52;99680.00;;;12.98;57.73
22964;BME280;11648;49.306;6.934;2024-01-30T01:19:19;99685.31;;;12.91;57.14
22964;BME280;11648;49.306;6.934;2024-01-30T01:21:46;99680.88;;;12.89;57.02
22964;BME280;11648;49.306;6.934;2024-01-30T01:24:13;99681.78;;;12.87;57.16
22964;BME280;11648;49.306;6.934;2024-01-30T01:26:40;99678.28;;;13.00;57.26
22964;BME280;11648;49.306;6.934;2024-01-30T01:29:07;99682.66;;;13.06;57.43
22964;BME280;11648;49.306;6.934;2024-01-30T01:31:38;99680.03;;;12.97;57.32
22964;BME280;11648;49.306;6.934;2024-01-30T01:34:11;99677.38;;;12.97;57.22
22964;BME280;11648;49.306;6.934;2024-01-30T01:36:39;99680.03;;;12.83;57.50
22964;BME280;11648;49.306;6.934;2024-01-30T01:39:06;99677.38;;;12.77;57.64
22964;BME280;11648;49.306;6.934;2024-01-30T01:41:33;99682.66;;;12.75;57.50
22964;BME280;11648;49.306;6.934;2024-01-30T01:44:00;99678.25;;;12.68;57.78
22964;BME280;11648;49.306;6.934;2024-01-30T01:46:30;99672.09;;;12.72;58.10
22964;BME280;11648;49.306;6.934;2024-01-30T01:49:00;99671.22;;;12.78;57.67
22964;BME280;11648;49.306;6.934;2024-01-30T01:51:31;99672.09;;;12.75;57.76
22964;BME280;11648;49.306;6.934;2024-01-30T01:53:58;99678.28;;;12.80;57.95
22964;BME280;11648;49.306;6.934;2024-01-30T01:56:28;99681.78;;;12.72;57.84
22964;BME280;11648;49.306;6.934;2024-01-30T01:59:04;99677.38;;;12.87;57.63
22964;BME280;11648;49.306;6.934;2024-01-30T02:01:38;99674.75;;;12.72;58.40
22964;BME280;11648;49.306;6.934;2024-01-30T02:04:07;99666.81;;;12.87;57.79
22964;BME280;11648;49.306;6.934;2024-01-30T02:06:35;99659.75;;;12.76;57.98
22964;BME280;11648;49.306;6.934;2024-01-30T02:09:02;99663.28;;;12.88;57.59
22964;BME280;11648;49.306;6.934;2024-01-30T02:11:31;99662.41;;;12.88;57.21
22964;BME280;11648;49.306;6.934;2024-01-30T02:14:02;99664.19;;;12.97;57.29
22964;BME280;11648;49.306;6.934;2024-01-30T02:16:31;99664.19;;;12.89;57.54
22964;BME280;11648;49.306;6.934;2024-01-30T02:18:58;99658.00;;;12.85;57.47
22964;BME280;11648;49.306;6.934;2024-01-30T02:21:29;99658.91;;;12.89;57.41
22964;BME280;11648;49.306;6.934;2024-01-30T02:23:57;99652.72;;;12.95;56.99
22964;BME280;11648;49.306;6.934;2024-01-30T02:26:25;99658.00;;;12.95;56.48
22964;BME280;11648;49.306;6.934;2024-01-30T02:28:52;99660.66;;;12.88;56.87
22964;BME280;11648;49.306;6.934;2024-01-30T02:31:18;99659.75;;;12.83;56.43
22964;BME280;11648;49.306;6.934;2024-01-30T02:33:45;99666.81;;;12.92;56.49
22964;BME280;11648;49.306;6.934;2024-01-30T02:36:12;99658.00;;;12.99;56.14
22964;BME280;11648;49.306;6.934;2024-01-30T02:38:39;99662.41;;;12.91;56.62
22964;BME280;11648;49.306;6.934;2024-01-30T02:41:06;99661.53;;;12.97;55.82
22964;BME280;11648;49.306;6.934;2024-01-30T02:43:33;99659.75;;;12.99;55.87
22964;BME280;11648;49.306;6.934;2024-01-30T02:46:00;99665.94;;;12.96;55.96
22964;BME280;11648;49.306;6.934;2024-01-30T02:48:27;99666.81;;;12.97;55.48
22964;BME280;11648;49.306;6.934;2024-01-30T02:50:54;99674.75;;;12.87;55.37
22964;BME280;11648;49.306;6.934;2024-01-30T02:53:21;99665.91;;;12.98;55.49
22964;BME280;11648;49.306;6.934;2024-01-30T02:55:48;99665.91;;;13.05;54.84
22964;BME280;11648;49.306;6.934;2024-01-30T02:58:15;99668.59;;;13.10;54.81
22964;BME280;11648;49.306;6.934;2024-01-30T03:00:42;99667.66;;;13.02;54.27
22964;BME280;11648;49.306;6.934;2024-01-30T03:03:09;99663.28;;;13.11;54.03
22964;BME280;11648;49.306;6.934;2024-01-30T03:05:36;99658.84;;;13.01;54.05
22964;BME280;11648;49.306;6.934;2024-01-30T03:08:04;99660.66;;;12.85;54.90
22964;BME280;11648;49.306;6.934;2024-01-30T03:10:31;99659.78;;;12.85;54.38
22964;BME280;11648;49.306;6.934;2024-01-30T03:12:58;99658.03;;;12.67;54.73
22964;BME280;11648;49.306;6.934;2024-01-30T03:15:28;99655.38;;;12.67;54.90
22964;BME280;11648;49.306;6.934;2024-01-30T03:17:54;99659.78;;;12.65;54.89
22964;BME280;11648;49.306;6.934;2024-01-30T03:20:21;99656.25;;;12.57;55.58
22964;BME280;11648;49.306;6.934;2024-01-30T03:22:48;99654.47;;;12.65;55.27
22964;BME280;11648;49.306;6.934;2024-01-30T03:25:15;99654.50;;;12.56;55.66
22964;BME280;11648;49.306;6.934;2024-01-30T03:27:42;99658.03;;;12.70;55.48
22964;BME280;11648;49.306;6.934;2024-01-30T03:30:09;99656.22;;;12.75;55.33
22964;BME280;11648;49.306;6.934;2024-01-30T03:32:36;99650.97;;;12.63;55.12
22964;BME280;11648;49.306;6.934;2024-01-30T03:35:03;99660.66;;;12.73;55.21
22964;BME280;11648;49.306;6.934;2024-01-30T03:37:30;99660.69;;;12.64;55.41
22964;BME280;11648;49.306;6.934;2024-01-30T03:39:57;99666.84;;;12.68;55.32
22964;BME280;11648;49.306;6.934;2024-01-30T03:42:24;99659.78;;;12.71;55.11
22964;BME280;11648;49.306;6.934;2024-01-30T03:44:51;99658.88;;;12.65;55.60
22964;BME280;11648;49.306;6.934;2024-01-30T03:47:20;99657.13;;;12.68;55.05
22964;BME280;11648;49.306;6.934;2024-01-30T03:49:47;99657.13;;;12.77;54.83
22964;BME280;11648;49.306;6.934;2024-01-30T03:52:15;99658.00;;;12.72;54.73
22964;BME280;11648;49.306;6.934;2024-01-30T03:54:42;99665.94;;;12.84;54.74
22964;BME280;11648;49.306;6.934;2024-01-30T03:57:09;99661.50;;;12.91;54.46
22964;BME280;11648;49.306;6.934;2024-01-30T03:59:36;99659.75;;;12.89;54.16
22964;BME280;11648;49.306;6.934;2024-01-30T04:02:03;99661.50;;;12.94;53.85
22964;BME280;11648;49.306;6.934;2024-01-30T04:04:30;99653.63;;;12.81;54.42
22964;BME280;11648;49.306;6.934;2024-01-30T04:06:57;99662.38;;;12.89;54.38
22964;BME280;11648;49.306;6.934;2024-01-30T04:09:24;99654.44;;;13.05;53.71
22964;BME280;11648;49.306;6.934;2024-01-30T04:11:53;99644.78;;;12.95;53.59
22964;BME280;11648;49.306;6.934;2024-01-30T04:14:20;99655.38;;;12.85;53.95
22964;BME280;11648;49.306;6.934;2024-01-30T04:16:46;99658.88;;;12.97;53.85
22964;BME280;11648;49.306;6.934;2024-01-30T04:19:13;99665.06;;;13.11;53.52
22964;BME280;11648;49.306;6.934;2024-01-30T04:21:41;99657.13;;;13.14;52.89
22964;BME280;11648;49.306;6.934;2024-01-30T04:24:08;99658.84;;;13.28;52.64
22964;BME280;11648;49.306;6.934;2024-01-30T04:26:35;99653.56;;;13.25;52.91
22964;BME280;11648;49.306;6.934;2024-01-30T04:29:03;99653.59;;;13.18;52.74
22964;BME280;11648;49.306;6.934;2024-01-30T04:31:30;99657.09;;;13.03;53.05
22964;BME280;11648;49.306;6.934;2024-01-30T04:33:57;99662.38;;;13.32;52.40
22964;BME280;11648;49.306;6.934;2024-01-30T04:36:24;99657.06;;;13.33;52.27
22964;BME280;11648;49.306;6.934;2024-01-30T04:38:51;99658.81;;;13.33;51.92
22964;BME280;11648;49.306;6.934;2024-01-30T04:41:17;99666.78;;;13.31;52.18
22964;BME280;11648;49.306;6.934;2024-01-30T04:43:44;99667.66;;;13.23;52.36
22964;BME280;11648;49.306;6.934;2024-01-30T04:46:11;99663.25;;;13.23;52.28
22964;BME280;11648;49.306;6.934;2024-01-30T04:48:38;99671.19;;;13.22;52.47
22964;BME280;11648;49.306;6.934;2024-01-30T04:51:05;99671.22;;;12.96;53.37
22964;BME280;11648;49.306;6.934;2024-01-30T04:53:32;99679.16;;;13.04;52.94
22964;BME280;11648;49.306;6.934;2024-01-30T04:55:59;99680.03;;;13.12;52.47
22964;BME280;11648;49.306;6.934;2024-01-30T04:58:26;99674.72;;;13.31;52.20
22964;BME280;11648;49.306;6.934;2024-01-30T05:00:53;99675.56;;;13.40;51.62
22964;BME280;11648;49.306;6.934;2024-01-30T05:03:20;99668.50;;;13.40;51.42
22964;BME280;11648;49.306;6.934;2024-01-30T05:05:48;99667.63;;;13.38;51.77
22964;BME280;11648;49.306;6.934;2024-01-30T05:08:15;99670.28;;;13.36;51.69
22964;BME280;11648;49.306;6.934;2024-01-30T05:10:42;99668.53;;;13.29;51.82
22964;BME280;11648;49.306;6.934;2024-01-30T05:13:09;99661.47;;;13.30;51.65
22964;BME280;11648;49.306;6.934;2024-01-30T05:15:37;99677.38;;;13.28;51.76
22964;BME280;11648;49.306;6.934;2024-01-30T05:18:04;99673.84;;;13.28;51.67
22964;BME280;11648;49.306;6.934;2024-01-30T05:20:31;99669.44;;;13.15;51.87
22964;BME280;11648;49.306;6.934;2024-01-30T05:22:58;99665.91;;;13.22;52.12
22964;BME280;11648;49.306;6.934;2024-01-30T05:25:25;99669.41;;;13.22;51.66
22964;BME280;11648;49.306;6.934;2024-01-30T05:27:52;99663.28;;;13.10;52.03
22964;BME280;11648;49.306;6.934;2024-01-30T05:30:19;99668.56;;;12.99;52.70
22964;BME280;11648;49.306;6.934;2024-01-30T05:32:46;99676.50;;;12.90;52.82
22964;BME280;11648;49.306;6.934;2024-01-30T05:35:13;99678.25;;;12.89;52.96
22964;BME280;11648;49.306;6.934;2024-01-30T05:37:40;99683.56;;;12.93;52.69
22964;BME280;11648;49.306;6.934;2024-01-30T05:40:07;99679.13;;;12.82;53.45
22964;BME280;11648;49.306;6.934;2024-01-30T05:42:34;99683.56;;;12.88;53.29
22964;BME280;11648;49.306;6.934;2024-01-30T05:45:01;99681.78;;;12.95;53.08
22964;BME280;11648;49.306;6.934;2024-01-30T05:47:29;99681.81;;;12.78;53.85
22964;BME280;11648;49.306;6.934;2024-01-30T05:49:56;99678.25;;;12.83;53.24
22964;BME280;11648;49.306;6.934;2024-01-30T05:52:23;99683.53;;;12.83;53.35
22964;BME280;11648;49.306;6.934;2024-01-30T05:54:50;99684.44;;;12.85;53.34
22964;BME280;11648;49.306;6.934;2024-01-30T05:57:17;99682.66;;;12.86;53.81
22964;BME280;11648;49.306;6.934;2024-01-30T05:59:44;99687.94;;;13.06;53.35
22964;BME280;11648;49.306;6.934;2024-01-30T06:02:11;99693.25;;;12.95;52.92
22964;BME280;11648;49.306;6.934;2024-01-30T06:04:38;99690.59;;;12.80;53.54
22964;BME280;11648;49.306;6.934;2024-01-30T06:07:05;99686.19;;;12.79;53.58
22964;BME280;11648;49.306;6.934;2024-01-30T06:09:33;99681.81;;;12.85;53.37
22964;BME280;11648;49.306;6.934;2024-01-30T06:12:00;99675.63;;;12.80;53.44
22964;BME280;11648;49.306;6.934;2024-01-30T06:14:27;99667.69;;;12.80;53.31
22964;BME280;11648;49.306;6.934;2024-01-30T06:16:53;99678.25;;;12.79;53.79
22964;BME280;11648;49.306;6.934;2024-01-30T06:19:20;99670.31;;;12.79;53.67
22964;BME280;11648;49.306;6.934;2024-01-30T06:21:47;99682.69;;;12.71;53.94
22964;BME280;11648;49.306;6.934;2024-01-30T06:24:14;99681.78;;;12.81;54.11
22964;BME280;11648;49.306;6.934;2024-01-30T06:26:41;99677.38;;;12.72;54.01
22964;BME280;11648;49.306;6.934;2024-01-30T06:29:08;99671.22;;;12.81;54.22
22964;BME280;11648;49.306;6.934;2024-01-30T06:31:41;99672.97;;;12.91;54.21
22964;BME280;11648;49.306;6.934;2024-01-30T06:34:11;99672.06;;;13.09;53.29
22964;BME280;11648;49.306;6.934;2024-01-30T06:36:39;99666.81;;;13.10;53.63
22964;BME280;11648;49.306;6.934;2024-01-30T06:39:06;99667.69;;;13.12;53.54
22964;BME280;11648;49.306;6.934;2024-01-30T06:41:33;99673.84;;;12.95;54.18
22964;BME280;11648;49.306;6.934;2024-01-30T06:44:02;99672.06;;;13.15;53.87
22964;BME280;11648;49.306;6.934;2024-01-30T06:46:29;99679.16;;;13.10;53.69
22964;BME280;11648;49.306;6.934;2024-01-30T06:48:56;99675.59;;;13.20;53.48
22964;BME280;11648;49.306;6.934;2024-01-30T06:51:23;99666.81;;;12.91;54.43
22964;BME280;11648;49.306;6.934;2024-01-30T06:53:53;99676.47;;;13.19;53.42
22964;BME280;11648;49.306;6.934;2024-01-30T06:56:19;99679.13;;;13.25;53.49
22964;BME280;11648;49.306;6.934;2024-01-30T06:58:48;99681.78;;;13.20;53.42
22964;BME280;11648;49.306;6.934;2024-01-30T07:01:15;99683.53;;;13.20;53.72
22964;BME280;11648;49.306;6.934;2024-01-30T07:03:43;99692.31;;;13.29;53.53
22964;BME280;11648;49.306;6.934;2024-01-30T07:06:10;99694.97;;;13.39;53.30
22964;BME280;11648;49.306;6.934;2024-01-30T07:08:37;99700.28;;;13.35;53.57
22964;BME280;11648;49.306;6.934;2024-01-30T07:11:07;99705.53;;;13.45;53.50
22964;BME280;11648;49.306;6.934;2024-01-30T07:13:34;99698.44;;;13.51;53.33
22964;BME280;11648;49.306;6.934;2024-01-30T07:16:01;99696.69;;;13.52;53.27
22964;BME280;11648;49.306;6.934;2024-01-30T07:18:28;99697.56;;;13.48;53.43
22964;BME280;11648;49.306;6.934;2024-01-30T07:20:55;99700.22;;;13.52;53.29
22964;BME280;11648;49.306;6.934;2024-01-30T07:23:22;99701.97;;;13.53;53.00
22964;BME280;11648;49.306;6.934;2024-01-30T07:25:49;99696.69;;;13.56;53.33
22964;BME280;11648;49.306;6.934;2024-01-30T07:28:17;99696.63;;;13.65;52.84
22964;BME280;11648;49.306;6.934;2024-01-30T07:30:44;99699.34;;;13.47;53.55
22964;BME280;11648;49.306;6.934;2024-01-30T07:33:11;99701.97;;;13.56;53.30
22964;BME280;11648;49.306;6.934;2024-01-30T07:35:38;99708.13;;;13.58;53.20
22964;BME280;11648;49.306;6.934;2024-01-30T07:38:05;99710.78;;;13.55;53.07
22964;BME280;11648;49.306;6.934;2024-01-30T07:40:32;99703.72;;;13.60;52.83
22964;BME280;11648;49.306;6.934;2024-01-30T07:43:00;99716.97;;;13.50;53.71
22964;BME280;11648;49.306;6.934;2024-01-30T07:45:27;99718.72;;;13.64;53.42
22964;BME280;11648;49.306;6.934;2024-01-30T07:47:59;99717.84;;;13.56;53.44
22964;BME280;11648;49.306;6.934;2024-01-30T07:50:29;99710.72;;;13.76;53.45
22964;BME280;11648;49.306;6.934;2024-01-30T07:52:56;99718.69;;;13.75;53.44
22964;BME280;11648;49.306;6.934;2024-01-30T07:55:23;99716.88;;;13.80;53.41
22964;BME280;11648;49.306;6.934;2024-01-30T07:57:55;99721.22;;;13.99;52.87
22964;BME280;11648;49.306;6.934;2024-01-30T08:00:22;99718.50;;;14.13;52.68
22964;BME280;11648;49.306;6.934;2024-01-30T08:02:49;99717.50;;;14.30;52.48
22964;BME280;11648;49.306;6.934;2024-01-30T08:05:19;99718.28;;;14.52;51.94
22964;BME280;11648;49.306;6.934;2024-01-30T08:07:46;99719.97;;;14.64;51.54
22964;BME280;11648;49.306;6.934;2024-01-30T08:10:13;99725.06;;;14.94;51.22
22964;BME280;11648;49.306;6.934;2024-01-30T08:12:41;99730.16;;;15.18;50.96
22964;BME280;11648;49.306;6.934;2024-01-30T08:15:08;99733.41;;;15.48;50.14
22964;BME280;11648;49.306;6.934;2024-01-30T08:17:35;99734.22;;;15.57;49.58
22964;BME280;11648;49.306;6.934;2024-01-30T08:20:02;99728.66;;;15.80;48.63
22964;BME280;11648;49.306;6.934;2024-01-30T08:22:31;99722.50;;;15.76;48.49
22964;BME280;11648;49.306;6.934;2024-01-30T08:24:58;99723.59;;;15.59;48.70
22964;BME280;11648;49.306;6.934;2024-01-30T08:27:25;99724.09;;;15.90;47.94
22964;BME280;11648;49.306;6.934;2024-01-30T08:29:52;99721.41;;;15.94;48.24
22964;BME280;11648;49.306;6.934;2024-01-30T08:32:19;99720.56;;;15.91;48.05
22964;BME280;11648;49.306;6.934;2024-01-30T08:34:46;99722.47;;;15.79;48.10
22964;BME280;11648;49.306;6.934;2024-01-30T08:37:13;99729.28;;;16.02;47.86
22964;BME280;11648;49.306;6.934;2024-01-30T08:39:43;99720.31;;;16.09;47.69
22964;BME280;11648;49.306;6.934;2024-01-30T08:42:10;99716.03;;;15.96;47.94
22964;BME280;11648;49.306;6.934;2024-01-30T08:44:38;99722.06;;;16.11;47.72
22964;BME280;11648;49.306;6.934;2024-01-30T08:47:05;99719.50;;;16.05;47.89
22964;BME280;11648;49.306;6.934;2024-01-30T08:49:32;99719.75;;;15.84;48.16
22964;BME280;11648;49.306;6.934;2024-01-30T08:51:59;99709.75;;;16.03;48.13
22964;BME280;11648;49.306;6.934;2024-01-30T08:54:26;99708.78;;;16.10;48.27
22964;BME280;11648;49.306;6.934;2024-01-30T08:56:53;99705.88;;;16.29;48.00
22964;BME280;11648;49.306;6.934;2024-01-30T08:59:22;99712.81;;;16.38;47.60
22964;BME280;11648;49.306;6.934;2024-01-30T09:01:48;99719.44;;;16.07;47.75
22964;BME280;11648;49.306;6.934;2024-01-30T09:04:29;99722.59;;;16.35;47.55
22964;BME280;11648;49.306;6.934;2024-01-30T09:06:56;99733.84;;;16.55;47.19
22964;BME280;11648;49.306;6.934;2024-01-30T09:09:23;99741.34;;;16.27;47.47
22964;BME280;11648;49.306;6.934;2024-01-30T09:11:50;99736.97;;;16.21;47.61
22964;BME280;11648;49.306;6.934;2024-01-30T09:14:17;99736.53;;;16.53;46.94
22964;BME280;11648;49.306;6.934;2024-01-30T09:16:44;99726.09;;;16.40;47.42
22964;BME280;11648;49.306;6.934;2024-01-30T09:19:11;99738.53;;;16.36;47.43
22964;BME280;11648;49.306;6.934;2024-01-30T09:21:38;99738.28;;;16.57;46.56
22964;BME280;11648;49.306;6.934;2024-01-30T09:24:05;99731.19;;;16.56;46.92
22964;BME280;11648;49.306;6.934;2024-01-30T09:26:32;99735.28;;;16.78;46.68
22964;BME280;11648;49.306;6.934;2024-01-30T09:28:59;99745.13;;;16.73;46.65
22964;BME280;11648;49.306;6.934;2024-01-30T09:31:26;99743.59;;;16.53;46.93
22964;BME280;11648;49.306;6.934;2024-01-30T09:33:53;99748.25;;;16.39;47.15
22964;BME280;11648;49.306;6.934;2024-01-30T09:36:20;99752.53;;;16.50;47.24
22964;BME280;11648;49.306;6.934;2024-01-30T09:38:48;99764.38;;;16.25;47.90
22964;BME280;11648;49.306;6.934;2024-01-30T09:41:15;99757.25;;;16.28;47.92
22964;BME280;11648;49.306;6.934;2024-01-30T09:43:47;99763.19;;;16.47;47.51
22964;BME280;11648;49.306;6.934;2024-01-30T09:46:17;99772.84;;;16.53;47.44
22964;BME280;11648;49.306;6.934;2024-01-30T09:48:47;99783.47;;;16.59;47.08
22964;BME280;11648;49.306;6.934;2024-01-30T09:51:15;99785.81;;;16.80;47.18
22964;BME280;11648;49.306;6.934;2024-01-30T09:53:43;99781.59;;;16.65;47.53
22964;BME280;11648;49.306;6.934;2024-01-30T09:56:12;99786.81;;;16.71;47.53
22964;BME280;11648;49.306;6.934;2024-01-30T09:58:39;99789.69;;;16.56;47.54
22964;BME280;11648;49.306;6.934;2024-01-30T10:01:06;99786.72;;;16.77;47.21
22964;BME280;11648;49.306;6.934;2024-01-30T10:03:33;99786.59;;;16.88;46.99
22964;BME280;11648;49.306;6.934;2024-01-30T10:06:01;99783.75;;;16.97;47.37
22964;BME280;11648;49.306;6.934;2024-01-30T10:08:28;99774.84;;;17.01;47.47
22964;BME280;11648;49.306;6.934;2024-01-30T10:10:56;99772.44;;;17.38;46.79
22964;BME280;11648;49.306;6.934;2024-01-30T10:13:25;99766.31;;;17.32;46.48
22964;BME280;11648;49.306;6.934;2024-01-30T10:15:53;99765.34;;;17.88;45.73
22964;BME280;11648;49.306;6.934;2024-01-30T10:18:24;99760.25;;;18.18;45.22
22964;BME280;11648;49.306;6.934;2024-01-30T10:20:51;99754.50;;;18.38;44.55
22964;BME280;11648;49.306;6.934;2024-01-30T10:23:18;99754.72;;;19.43;42.04
22964;BME280;11648;49.306;6.934;2024-01-30T10:25:46;99756.91;;;19.25;41.10
22964;BME280;11648;49.306;6.934;2024-01-30T10:28:13;99762.63;;;19.80;40.82
22964;BME280;11648;49.306;6.934;2024-01-30T10:30:40;99764.25;;;19.85;40.27
22964;BME280;11648;49.306;6.934;2024-01-30T10:33:07;99774.81;;;20.20;39.65
22964;BME280;11648;49.306;6.934;2024-01-30T10:35:34;99781.38;;;19.44;41.32
22964;BME280;11648;49.306;6.934;2024-01-30T10:38:01;99768.22;;;19.70;40.68
22964;BME280;11648;49.306;6.934;2024-01-30T10:40:30;99762.19;;;19.62;41.11
22964;BME280;11648;49.306;6.934;2024-01-30T10:43:01;99764.78;;;19.65;41.19
22964;BME280;11648;49.306;6.934;2024-01-30T10:45:31;99764.31;;;20.14;40.77
22964;BME280;11648;49.306;6.934;2024-01-30T10:48:00;99744.59;;;21.31;39.15
22964;BME280;11648;49.306;6.934;2024-01-30T10:50:30;99743.13;;;22.91;36.82
22964;BME280;11648;49.306;6.934;2024-01-30T10:52:58;99727.63;;;24.41;34.32
22964;BME280;11648;49.306;6.934;2024-01-30T10:55:27;99736.03;;;25.95;31.02
22964;BME280;11648;49.306;6.934;2024-01-30T10:57:55;99732.94;;;25.86;30.27
22964;BME280;11648;49.306;6.934;2024-01-30T11:00:22;99718.16;;;27.81;28.62
22964;BME280;11648;49.306;6.934;2024-01-30T11:02:51;99711.09;;;26.56;29.30
22964;BME280;11648;49.306;6.934;2024-01-30T11:05:25;99710.50;;;26.98;28.54
22964;BME280;11648;49.306;6.934;2024-01-30T11:08:10;99724.00;;;26.01;30.11
22964;BME280;11648;49.306;6.934;2024-01-30T11:10:47;99728.25;;;25.02;31.13
22964;BME280;11648;49.306;6.934;2024-01-30T11:13:14;99730.78;;;23.91;32.75
22964;BME280;11648;49.306;6.934;2024-01-30T11:15:41;99735.16;;;23.74;33.61
22964;BME280;11648;49.306;6.934;2024-01-30T11:18:08;99747.28;;;23.64;33.89
22964;BME280;11648;49.306;6.934;2024-01-30T11:20:35;99746.31;;;23.44;34.15
22964;BME280;11648;49.306;6.934;2024-01-30T11:23:03;99745.53;;;23.41;34.57
22964;BME280;11648;49.306;6.934;2024-01-30T11:25:33;99739.25;;;22.98;34.98
22964;BME280;11648;49.306;6.934;2024-01-30T11:28:00;99735.94;;;22.70;35.33
22964;BME280;11648;49.306;6.934;2024-01-30T11:30:29;99740.81;;;22.82;35.23
22964;BME280;11648;49.306;6.934;2024-01-30T11:33:28;99749.94;;;22.32;36.66
22964;BME280;11648;49.306;6.934;2024-01-30T11:36:01;99743.00;;;22.73;35.94
22964;BME280;11648;49.306;6.934;2024-01-30T11:38:29;99735.53;;;22.81;36.00
22964;BME280;11648;49.306;6.934;2024-01-30T11:40:56;99742.88;;;22.97;35.47
22964;BME280;11648;49.306;6.934;2024-01-30T11:43:24;99736.94;;;23.11;35.57
22964;BME280;11648;49.306;6.934;2024-01-30T11:45:51;99740.84;;;23.24;35.37
22964;BME280;11648;49.306;6.934;2024-01-30T11:48:19;99724.16;;;23.59;34.85
22964;BME280;11648;49.306;6.934;2024-01-30T11:50:46;99729.25;;;23.45;35.15
22964;BME280;11648;49.306;6.934;2024-01-30T11:53:13;99724.53;;;22.87;35.92
22964;BME280;11648;49.306;6.934;2024-01-30T11:55:40;99722.88;;;22.14;37.02
22964;BME280;11648;49.306;6.934;2024-01-30T11:58:07;99731.28;;;22.29;36.97
22964;BME280;11648;49.306;6.934;2024-01-30T12:00:35;99727.28;;;22.39;37.23
22964;BME280;11648;49.306;6.934;2024-01-30T12:03:03;99729.00;;;21.68;38.59
22964;BME280;11648;49.306;6.934;2024-01-30T12:05:31;99732.88;;;21.35;39.24
22964;BME280;11648;49.306;6.934;2024-01-30T12:07:58;99735.44;;;21.38;39.56
22964;BME280;11648;49.306;6.934;2024-01-30T12:10:27;99724.91;;;20.80;40.65
22964;BME280;11648;49.306;6.934;2024-01-30T12:12:55;99730.88;;;20.60;41.32
22964;BME280;11648;49.306;6.934;2024-01-30T12:15:22;99730.25;;;20.80;41.15
22964;BME280;11648;49.306;6.934;2024-01-30T12:17:49;99719.63;;;20.77;41.09
22964;BME280;11648;49.306;6.934;2024-01-30T12:20:20;99715.44;;;20.96;41.04
22964;BME280;11648;49.306;6.934;2024-01-30T12:22:49;99712.78;;;20.94;41.16
22964;BME280;11648;49.306;6.934;2024-01-30T12:25:18;99720.09;;;20.89;41.23
22964;BME280;11648;49.306;6.934;2024-01-30T12:27:48;99709.16;;;20.97;40.87
22964;BME280;11648;49.306;6.934;2024-01-30T12:30:20;99710.00;;;20.71;41.36
22964;BME280;11648;49.306;6.934;2024-01-30T12:32:51;99703.88;;;20.40;41.85
22964;BME280;11648;49.306;6.934;2024-01-30T12:35:19;99700.75;;;20.53;41.82
22964;BME280;11648;49.306;6.934;2024-01-30T12:37:48;99712.59;;;20.45;42.25
22964;BME280;11648;49.306;6.934;2024-01-30T12:40:16;99708.97;;;20.16;42.92
22964;BME280;11648;49.306;6.934;2024-01-30T12:42:46;99705.09;;;20.57;42.47
22964;BME280;11648;49.306;6.934;2024-01-30T12:45:16;99713.81;;;20.62;42.41
22964;BME280;11648;49.306;6.934;2024-01-30T12:47:47;99689.25;;;20.78;41.97
22964;BME280;11648;49.306;6.934;2024-01-30T12:50:15;99691.13;;;20.76;41.71
22964;BME280;11648;49.306;6.934;2024-01-30T12:52:45;99700.56;;;20.59;42.32
22964;BME280;11648;49.306;6.934;2024-01-30T12:55:16;99705.31;;;20.78;41.97
22964;BME280;11648;49.306;6.934;2024-01-30T12:57:43;99702.53;;;20.81;41.97
22964;BME280;11648;49.306;6.934;2024-01-30T13:00:10;99705.34;;;20.19;42.99
22964;BME280;11648;49.306;6.934;2024-01-30T13:02:37;99706.22;;;20.19;43.33